createdAt,value
2022-09-26T00:00:17.037Z,17.59
2022-09-26T00:02:44.964Z,17.59
2022-09-26T00:05:11.646Z,17.60
2022-09-26T00:07:38.164Z,17.57
2022-09-26T00:10:05.469Z,17.56
2022-09-26T00:12:31.973Z,17.51
2022-09-26T00:14:58.509Z,17.49
2022-09-26T00:17:25.068Z,17.45
2022-09-26T00:19:51.560Z,17.43
2022-09-26T00:22:18.033Z,17.39
2022-09-26T00:24:44.544Z,17.33
2022-09-26T00:27:11.384Z,17.24
2022-09-26T00:29:38.771Z,17.18
2022-09-26T00:32:05.286Z,17.13
2022-09-26T00:34:32.069Z,17.10
2022-09-26T00:36:58.621Z,17.06
2022-09-26T00:39:25.145Z,17.06
2022-09-26T00:41:51.727Z,17.08
2022-09-26T00:44:35.253Z,17.11
2022-09-26T00:47:02.096Z,17.14
2022-09-26T00:49:35.528Z,17.16
2022-09-26T00:52:10.249Z,17.18
2022-09-26T00:54:39.021Z,17.23
2022-09-26T00:57:12.215Z,17.24
2022-09-26T00:59:49.439Z,17.20
2022-09-26T01:02:16.736Z,17.17
2022-09-26T01:04:44.949Z,17.14
2022-09-26T01:07:18.622Z,17.13
2022-09-26T01:09:45.148Z,17.13
2022-09-26T01:12:12.193Z,17.11
2022-09-26T01:14:40.565Z,17.11
2022-09-26T01:17:07.756Z,17.13
2022-09-26T01:19:34.287Z,17.13
2022-09-26T01:22:34.314Z,17.09
2022-09-26T01:25:19.139Z,17.02
2022-09-26T01:28:15.802Z,16.98
2022-09-26T01:30:54.386Z,16.97
2022-09-26T01:33:36.250Z,16.99
2022-09-26T01:36:08.620Z,17.02
2022-09-26T01:39:15.194Z,17.06
2022-09-26T01:42:34.477Z,17.11
2022-09-26T01:45:07.904Z,17.17
2022-09-26T01:47:43.147Z,17.19
2022-09-26T01:50:16.309Z,17.18
2022-09-26T01:52:53.823Z,17.18
2022-09-26T01:55:28.519Z,17.16
2022-09-26T01:58:18.329Z,17.13
2022-09-26T02:00:47.230Z,17.08
2022-09-26T02:03:20.586Z,17.03
2022-09-26T02:05:52.553Z,16.97
2022-09-26T02:08:25.131Z,16.92
2022-09-26T02:11:02.081Z,16.89
2022-09-26T02:13:36.055Z,16.85
2022-09-26T02:16:09.312Z,16.83
2022-09-26T02:18:41.417Z,16.82
2022-09-26T02:21:21.516Z,16.78
2022-09-26T02:23:49.184Z,16.76
2022-09-26T02:26:15.796Z,16.73
2022-09-26T02:28:42.584Z,16.73
2022-09-26T02:31:09.865Z,16.70
2022-09-26T02:33:37.707Z,16.69
2022-09-26T02:36:10.195Z,16.67
2022-09-26T02:38:37.805Z,16.69
2022-09-26T02:41:29.620Z,16.71
2022-09-26T02:44:15.076Z,16.70
2022-09-26T02:46:54.580Z,16.72
2022-09-26T02:49:36.477Z,16.74
2022-09-26T02:52:29.206Z,16.72
2022-09-26T02:55:05.044Z,16.75
2022-09-26T02:57:44.944Z,16.75
2022-09-26T03:00:26.131Z,16.76
2022-09-26T03:03:03.514Z,16.77
2022-09-26T03:05:30.740Z,16.76
2022-09-26T03:08:08.867Z,16.79
2022-09-26T03:10:36.453Z,16.82
2022-09-26T03:13:13.686Z,16.84
2022-09-26T03:15:42.103Z,16.82
2022-09-26T03:18:13.391Z,16.80
2022-09-26T03:20:40.913Z,16.79
2022-09-26T03:23:07.537Z,16.77
2022-09-26T03:25:34.123Z,16.75
2022-09-26T03:28:02.314Z,16.73
2022-09-26T03:30:32.165Z,16.71
2022-09-26T03:32:58.670Z,16.63
2022-09-26T03:35:25.168Z,16.59
2022-09-26T03:37:51.701Z,16.56
2022-09-26T03:40:18.433Z,16.53
2022-09-26T03:42:46.816Z,16.53
2022-09-26T03:45:13.340Z,16.52
2022-09-26T03:47:40.043Z,16.55
2022-09-26T03:50:07.107Z,16.55
2022-09-26T03:52:33.647Z,16.56
2022-09-26T03:55:00.380Z,16.59
2022-09-26T03:57:26.924Z,16.58
2022-09-26T03:59:55.197Z,16.56
2022-09-26T04:02:22.669Z,16.56
2022-09-26T04:04:49.322Z,16.55
2022-09-26T04:07:15.874Z,16.56
2022-09-26T04:09:42.372Z,16.58
2022-09-26T04:12:08.944Z,16.59
2022-09-26T04:14:35.698Z,16.61
2022-09-26T04:17:02.182Z,16.62
2022-09-26T04:19:28.678Z,16.64
2022-09-26T04:21:55.255Z,16.66
2022-09-26T04:24:21.811Z,16.66
2022-09-26T04:26:48.454Z,16.68
2022-09-26T04:29:15.484Z,16.69
2022-09-26T04:31:42.317Z,16.70
2022-09-26T04:34:10.887Z,16.72
2022-09-26T04:36:38.194Z,16.70
2022-09-26T04:39:05.178Z,16.66
2022-09-26T04:41:32.308Z,16.64
2022-09-26T04:43:59.955Z,16.59
2022-09-26T04:46:31.018Z,16.56
2022-09-26T04:48:59.218Z,16.52
2022-09-26T04:51:27.517Z,16.48
2022-09-26T04:53:54.112Z,16.44
2022-09-26T04:56:22.323Z,16.42
2022-09-26T04:58:49.076Z,16.40
2022-09-26T05:01:20.440Z,16.40
2022-09-26T05:03:47.144Z,16.38
2022-09-26T05:06:15.439Z,16.36
2022-09-26T05:08:44.630Z,16.31
2022-09-26T05:11:11.218Z,16.26
2022-09-26T05:13:38.913Z,16.24
2022-09-26T05:16:08.852Z,16.23
2022-09-26T05:18:36.543Z,16.24
2022-09-26T05:21:03.757Z,16.23
2022-09-26T05:23:48.858Z,16.23
2022-09-26T05:26:28.007Z,16.24
2022-09-26T05:29:06.888Z,16.26
2022-09-26T05:31:37.471Z,16.26
2022-09-26T05:34:05.405Z,16.26
2022-09-26T05:36:32.001Z,16.26
2022-09-26T05:38:58.660Z,16.28
2022-09-26T05:41:29.460Z,16.28
2022-09-26T05:43:56.449Z,16.28
2022-09-26T05:46:23.305Z,16.28
2022-09-26T05:48:53.036Z,16.21
2022-09-26T05:51:21.154Z,16.17
2022-09-26T05:53:49.380Z,16.14
2022-09-26T05:56:19.718Z,16.12
2022-09-26T05:58:46.642Z,16.12
2022-09-26T06:01:15.698Z,16.13
2022-09-26T06:03:45.895Z,16.16
2022-09-26T06:06:14.809Z,16.16
2022-09-26T06:08:41.854Z,16.18
2022-09-26T06:11:14.607Z,16.21
2022-09-26T06:13:45.585Z,16.22
2022-09-26T06:16:20.928Z,16.27
2022-09-26T06:18:49.172Z,16.30
2022-09-26T06:21:17.167Z,16.35
2022-09-26T06:23:44.373Z,16.39
2022-09-26T06:26:22.843Z,16.40
2022-09-26T06:28:58.116Z,16.40
2022-09-26T06:31:25.587Z,16.44
2022-09-26T06:33:53.420Z,16.42
2022-09-26T06:36:21.868Z,16.42
2022-09-26T06:38:49.065Z,16.44
2022-09-26T06:41:16.446Z,16.47
2022-09-26T06:43:45.311Z,16.50
2022-09-26T06:46:13.076Z,16.50
2022-09-26T06:48:39.591Z,16.50
2022-09-26T06:51:06.616Z,16.47
2022-09-26T06:53:35.104Z,16.47
2022-09-26T06:56:02.099Z,16.45
2022-09-26T06:58:28.746Z,16.48
2022-09-26T07:00:56.634Z,16.49
2022-09-26T07:03:26.650Z,16.54
2022-09-26T07:05:56.902Z,16.58
2022-09-26T07:08:43.263Z,16.59
2022-09-26T07:11:32.741Z,16.57
2022-09-26T07:14:00.231Z,16.60
2022-09-26T07:16:27.199Z,16.67
2022-09-26T07:18:54.747Z,16.78
2022-09-26T07:21:21.297Z,16.95
2022-09-26T07:23:47.818Z,17.11
2022-09-26T07:26:14.340Z,17.24
2022-09-26T07:28:40.834Z,17.37
2022-09-26T07:31:07.801Z,17.50
2022-09-26T07:33:34.366Z,17.62
2022-09-26T07:36:05.276Z,17.76
2022-09-26T07:38:32.308Z,17.86
2022-09-26T07:41:00.836Z,18.01
2022-09-26T07:44:04.168Z,18.17
2022-09-26T07:46:33.294Z,18.32
2022-09-26T07:49:18.492Z,18.44
2022-09-26T07:51:46.081Z,18.59
2022-09-26T07:54:12.758Z,18.70
2022-09-26T07:56:40.384Z,18.81
2022-09-26T07:59:06.866Z,18.94
2022-09-26T08:01:33.429Z,19.02
2022-09-26T08:04:00.233Z,19.11
2022-09-26T08:06:27.686Z,19.19
2022-09-26T08:08:55.387Z,19.27
2022-09-26T08:11:22.444Z,19.35
2022-09-26T08:13:49.973Z,19.42
2022-09-26T08:16:22.999Z,19.52
2022-09-26T08:18:50.457Z,19.60
2022-09-26T08:21:17.949Z,19.73
2022-09-26T08:23:45.220Z,19.82
2022-09-26T08:26:12.137Z,19.91
2022-09-26T08:28:39.056Z,19.97
2022-09-26T08:31:06.631Z,20.05
2022-09-26T08:33:38.860Z,20.16
2022-09-26T08:36:11.098Z,20.25
2022-09-26T08:38:38.276Z,20.33
2022-09-26T08:41:32.471Z,20.43
2022-09-26T08:44:13.148Z,20.53
2022-09-26T08:47:01.317Z,20.62
2022-09-26T08:49:39.797Z,20.73
2022-09-26T08:52:24.031Z,20.79
2022-09-26T08:54:51.650Z,20.77
2022-09-26T08:57:29.626Z,20.73
2022-09-26T08:59:56.196Z,20.70
2022-09-26T09:02:45.524Z,20.68
2022-09-26T09:05:39.461Z,20.70
2022-09-26T09:08:12.968Z,20.71
2022-09-26T09:10:39.445Z,20.76
2022-09-26T09:13:05.944Z,20.84
2022-09-26T09:15:44.123Z,20.92
2022-09-26T09:18:18.787Z,20.96
2022-09-26T09:20:57.317Z,20.97
2022-09-26T09:23:31.597Z,21.00
2022-09-26T09:29:52.678Z,21.09
2022-09-26T09:32:22.331Z,21.17
2022-09-26T09:34:53.636Z,21.20
2022-09-26T09:37:26.917Z,21.25
2022-09-26T09:39:53.780Z,21.31
2022-09-26T09:42:33.317Z,21.38
2022-09-26T09:44:59.834Z,21.40
2022-09-26T09:47:29.076Z,21.44
2022-09-26T09:49:57.217Z,21.49
2022-09-26T09:52:29.791Z,21.56
2022-09-26T09:55:00.041Z,21.60
2022-09-26T09:57:42.772Z,21.70
2022-09-26T10:00:19.506Z,21.77
2022-09-26T10:03:02.279Z,21.80
2022-09-26T10:05:46.772Z,21.78
2022-09-26T10:08:17.485Z,21.80
2022-09-26T10:10:55.217Z,21.87
2022-09-26T10:13:24.052Z,21.95
2022-09-26T10:16:17.039Z,21.96
2022-09-26T10:19:02.343Z,22.07
2022-09-26T10:21:35.525Z,22.21
2022-09-26T10:24:04.856Z,22.31
2022-09-26T10:26:35.274Z,22.40
2022-09-26T10:29:08.119Z,22.52
2022-09-26T10:31:42.696Z,22.60
2022-09-26T10:34:25.641Z,22.68
2022-09-26T10:36:52.941Z,22.72
2022-09-26T10:39:48.561Z,22.74
2022-09-26T10:42:18.979Z,22.73
2022-09-26T10:44:46.368Z,22.73
2022-09-26T10:47:16.686Z,22.77
2022-09-26T10:50:03.506Z,22.82
2022-09-26T10:52:32.586Z,22.86
2022-09-26T10:55:05.027Z,22.90
2022-09-26T10:57:46.816Z,22.95
2022-09-26T11:00:24.396Z,22.98
2022-09-26T11:02:54.736Z,23.02
2022-09-26T11:05:40.138Z,23.06
2022-09-26T11:08:07.057Z,23.07
2022-09-26T11:10:34.380Z,23.07
2022-09-26T11:13:03.591Z,23.08
2022-09-26T11:15:30.168Z,23.09
2022-09-26T11:17:57.160Z,23.14
2022-09-26T11:20:41.969Z,23.20
2022-09-26T11:23:35.073Z,23.23
2022-09-26T11:26:16.342Z,23.23
2022-09-26T11:28:52.136Z,23.21
2022-09-26T11:31:27.767Z,23.20
2022-09-26T11:33:58.998Z,23.20
2022-09-26T11:36:39.629Z,23.18
2022-09-26T11:39:17.219Z,23.19
2022-09-26T11:42:06.469Z,23.20
2022-09-26T11:44:48.795Z,23.21
2022-09-26T11:47:46.552Z,23.20
2022-09-26T11:50:31.301Z,23.19
2022-09-26T11:53:28.439Z,23.20
2022-09-26T11:56:01.515Z,23.19
2022-09-26T11:58:37.581Z,23.21
2022-09-26T12:01:38.868Z,23.25
2022-09-26T12:04:45.315Z,23.24
2022-09-26T12:07:21.260Z,23.20
2022-09-26T12:10:12.305Z,23.20
2022-09-26T12:12:43.017Z,23.19
2022-09-26T12:15:33.741Z,23.18
2022-09-26T12:18:34.327Z,23.17
2022-09-26T12:21:39.124Z,23.17
2022-09-26T12:24:13.139Z,23.20
2022-09-26T12:26:58.627Z,23.22
2022-09-26T12:29:49.206Z,23.23
2022-09-26T12:32:40.131Z,23.22
2022-09-26T12:35:15.859Z,23.18
2022-09-26T12:38:18.202Z,23.17
2022-09-26T12:40:55.678Z,23.15
2022-09-26T12:43:31.852Z,23.12
2022-09-26T12:46:23.084Z,23.10
2022-09-26T12:49:17.383Z,23.10
2022-09-26T12:51:47.234Z,23.10
2022-09-26T12:54:44.196Z,23.08
2022-09-26T12:57:24.267Z,23.05
2022-09-26T12:59:58.223Z,22.99
2022-09-26T13:02:48.822Z,22.93
2022-09-26T13:05:34.301Z,22.87
2022-09-26T13:08:21.118Z,22.84
2022-09-26T13:11:06.378Z,22.82
2022-09-26T13:13:51.948Z,22.79
2022-09-26T13:16:50.581Z,22.77
2022-09-26T13:19:34.801Z,22.76
2022-09-26T13:22:04.437Z,22.74
2022-09-26T13:24:40.962Z,22.73
2022-09-26T13:27:21.159Z,22.73
2022-09-26T13:29:57.837Z,22.71
2022-09-26T13:32:35.537Z,22.65
2022-09-26T13:35:14.706Z,22.61
2022-09-26T13:38:09.394Z,22.56
2022-09-26T13:40:44.210Z,22.53
2022-09-26T13:43:25.695Z,22.51
2022-09-26T13:46:01.365Z,22.51
2022-09-26T13:48:41.580Z,22.48
2022-09-26T13:51:18.406Z,22.46
2022-09-26T13:53:54.080Z,22.44
2022-09-26T13:56:36.231Z,22.41
2022-09-26T13:59:11.804Z,22.39
2022-09-26T14:01:42.071Z,22.35
2022-09-26T14:04:34.247Z,22.34
2022-09-26T14:07:26.763Z,22.32
2022-09-26T14:09:59.285Z,22.28
2022-09-26T14:12:53.703Z,22.26
2022-09-26T14:15:28.839Z,22.24
2022-09-26T14:18:13.581Z,22.25
2022-09-26T14:20:56.186Z,22.23
2022-09-26T14:23:40.915Z,22.22
2022-09-26T14:26:21.182Z,22.18
2022-09-26T14:28:54.491Z,22.16
2022-09-26T14:31:37.087Z,22.12
2022-09-26T14:34:19.439Z,22.06
2022-09-26T14:36:46.913Z,22.03
2022-09-26T14:39:36.886Z,22.00
2022-09-26T14:42:08.526Z,21.96
2022-09-26T14:44:37.332Z,21.91
2022-09-26T14:47:06.952Z,21.88
2022-09-26T14:49:33.517Z,21.85
2022-09-26T14:52:01.610Z,21.84
2022-09-26T14:54:37.506Z,21.82
2022-09-26T14:57:07.948Z,21.79
2022-09-26T14:59:34.398Z,21.78
2022-09-26T15:02:25.832Z,21.77
2022-09-26T15:05:04.333Z,21.76
2022-09-26T15:07:39.110Z,21.73
2022-09-26T15:10:40.081Z,21.68
2022-09-26T15:13:19.433Z,21.65
2022-09-26T15:16:13.184Z,21.61
2022-09-26T15:18:50.093Z,21.58
2022-09-26T15:21:26.521Z,21.55
2022-09-26T15:23:56.172Z,21.54
2022-09-26T15:26:28.376Z,21.53
2022-09-26T15:28:57.890Z,21.53
2022-09-26T15:31:47.109Z,21.52
2022-09-26T15:34:17.928Z,21.49
2022-09-26T15:36:48.529Z,21.45
2022-09-26T15:39:31.247Z,21.39
2022-09-26T15:42:25.120Z,21.33
2022-09-26T15:45:01.664Z,21.31
2022-09-26T15:47:32.202Z,21.28
2022-09-26T15:50:14.311Z,21.28
2022-09-26T15:52:46.806Z,21.28
2022-09-26T15:55:23.834Z,21.27
2022-09-26T15:57:55.089Z,21.27
2022-09-26T16:00:24.020Z,21.26
2022-09-26T16:02:53.097Z,21.25
2022-09-26T16:05:22.872Z,21.28
2022-09-26T16:07:52.319Z,21.27
2022-09-26T16:10:30.055Z,21.28
2022-09-26T16:13:01.477Z,21.27
2022-09-26T16:15:33.674Z,21.25
2022-09-26T16:18:06.089Z,21.24
2022-09-26T16:20:33.304Z,21.24
2022-09-26T16:23:04.913Z,21.23
2022-09-26T16:25:52.386Z,21.23
2022-09-26T16:28:22.856Z,21.21
2022-09-26T16:30:58.894Z,21.20
2022-09-26T16:33:27.519Z,21.17
2022-09-26T16:35:54.830Z,21.17
2022-09-26T16:38:33.956Z,21.14
2022-09-26T16:41:09.828Z,21.11
2022-09-26T16:43:39.036Z,21.07
2022-09-26T16:46:10.133Z,21.07
2022-09-26T16:48:44.507Z,21.05
2022-09-26T16:51:25.236Z,21.04
2022-09-26T16:53:59.905Z,21.01
2022-09-26T16:56:28.538Z,21.00
2022-09-26T16:59:02.989Z,21.02
2022-09-26T17:01:50.981Z,21.03
2022-09-26T17:04:22.995Z,21.03
2022-09-26T17:06:50.379Z,21.03
2022-09-26T17:09:22.136Z,21.04
2022-09-26T17:11:53.654Z,21.04
2022-09-26T17:14:22.988Z,21.00
2022-09-26T17:16:55.138Z,21.01
2022-09-26T17:19:25.138Z,21.02
2022-09-26T17:21:54.441Z,21.02
2022-09-26T17:24:26.080Z,21.01
2022-09-26T17:26:59.305Z,20.99
2022-09-26T17:29:35.158Z,21.01
2022-09-26T17:32:09.667Z,21.02
2022-09-26T17:34:39.280Z,21.03
2022-09-26T17:37:08.038Z,21.02
2022-09-26T17:39:36.624Z,21.04
2022-09-26T17:42:03.586Z,21.03
2022-09-26T17:44:32.252Z,21.02
2022-09-26T17:47:00.164Z,21.02
2022-09-26T17:49:31.839Z,21.00
2022-09-26T17:52:02.340Z,20.96
2022-09-26T17:54:37.516Z,20.94
2022-09-26T17:57:09.781Z,20.91
2022-09-26T17:59:43.902Z,20.88
2022-09-26T18:02:32.153Z,20.86
2022-09-26T18:05:05.318Z,20.83
2022-09-26T18:07:39.123Z,20.79
2022-09-26T18:10:08.077Z,20.75
2022-09-26T18:12:37.142Z,20.73
2022-09-26T18:15:05.283Z,20.71
2022-09-26T18:17:31.892Z,20.72
2022-09-26T18:19:58.419Z,20.72
2022-09-26T18:22:33.083Z,20.72
2022-09-26T18:25:07.042Z,20.70
2022-09-26T18:27:39.658Z,20.66
2022-09-26T18:30:07.700Z,20.61
2022-09-26T18:32:36.762Z,20.59
2022-09-26T18:35:06.564Z,20.58
2022-09-26T18:37:33.829Z,20.55
2022-09-26T18:40:04.106Z,20.52
2022-09-26T18:42:32.974Z,20.47
2022-09-26T18:45:05.921Z,20.45
2022-09-26T18:47:37.401Z,20.42
2022-09-26T18:50:05.601Z,20.38
2022-09-26T18:52:33.180Z,20.36
2022-09-26T18:55:20.524Z,20.36
2022-09-26T18:58:06.842Z,20.36
2022-09-26T19:00:36.250Z,20.34
2022-09-26T19:03:06.316Z,20.32
2022-09-26T19:05:34.334Z,20.34
2022-09-26T19:08:02.730Z,20.32
2022-09-26T19:10:29.605Z,20.27
2022-09-26T19:12:56.777Z,20.21
2022-09-26T19:15:26.358Z,20.11
2022-09-26T19:17:53.674Z,20.03
2022-09-26T19:20:21.592Z,19.99
2022-09-26T19:22:52.150Z,19.95
2022-09-26T19:25:19.867Z,19.90
2022-09-26T19:27:49.703Z,19.83
2022-09-26T19:30:23.229Z,19.79
2022-09-26T19:32:53.683Z,19.72
2022-09-26T19:35:30.423Z,19.65
2022-09-26T19:37:59.802Z,19.58
2022-09-26T19:40:27.096Z,19.53
2022-09-26T19:42:55.119Z,19.49
2022-09-26T19:45:23.698Z,19.47
2022-09-26T19:47:52.542Z,19.47
2022-09-26T19:50:22.604Z,19.46
2022-09-26T19:52:52.225Z,19.44
2022-09-26T19:55:24.277Z,19.43
2022-09-26T19:57:54.611Z,19.42
2022-09-26T20:00:22.360Z,19.40
2022-09-26T20:02:51.852Z,19.39
2022-09-26T20:05:26.197Z,19.34
2022-09-26T20:07:55.731Z,19.29
2022-09-26T20:10:30.039Z,19.26
2022-09-26T20:12:57.667Z,19.25
2022-09-26T20:15:24.738Z,19.24
2022-09-26T20:17:51.500Z,19.16
2022-09-26T20:20:23.704Z,19.09
2022-09-26T20:22:51.773Z,19.02
2022-09-26T20:25:29.171Z,18.94
2022-09-26T20:27:57.564Z,18.86
2022-09-26T20:30:44.757Z,18.83
2022-09-26T20:33:13.543Z,18.76
2022-09-26T20:35:47.037Z,18.74
2022-09-26T20:38:33.731Z,18.70
2022-09-26T20:41:08.135Z,18.62
2022-09-26T20:43:41.431Z,18.60
2022-09-26T20:46:10.664Z,18.58
2022-09-26T20:48:39.289Z,18.57
2022-09-26T20:51:09.952Z,18.54
2022-09-26T20:53:37.154Z,18.55
2022-09-26T20:56:05.698Z,18.56
2022-09-26T20:58:32.470Z,18.56
2022-09-26T21:01:00.668Z,18.57
2022-09-26T21:03:28.285Z,18.57
2022-09-26T21:05:55.405Z,18.60
2022-09-26T21:08:27.646Z,18.62
2022-09-26T21:10:58.139Z,18.62
2022-09-26T21:13:25.232Z,18.60
2022-09-26T21:15:54.697Z,18.57
2022-09-26T21:18:28.715Z,18.51
2022-09-26T21:20:59.987Z,18.42
2022-09-26T21:23:26.731Z,18.39
2022-09-26T21:25:53.826Z,18.37
2022-09-26T21:28:28.209Z,18.37
2022-09-26T21:31:00.780Z,18.34
2022-09-26T21:33:28.130Z,18.33
2022-09-26T21:35:55.098Z,18.31
2022-09-26T21:38:24.495Z,18.26
2022-09-26T21:40:54.470Z,18.24
2022-09-26T21:43:25.225Z,18.22
2022-09-26T21:45:52.964Z,18.21
2022-09-26T21:48:21.774Z,18.23
2022-09-26T21:50:58.092Z,18.24
2022-09-26T21:53:39.049Z,18.24
2022-09-26T21:56:12.443Z,18.24
2022-09-26T21:58:40.293Z,18.27
2022-09-26T22:01:10.113Z,18.29
2022-09-26T22:03:38.508Z,18.29
2022-09-26T22:06:07.484Z,18.26
2022-09-26T22:08:34.232Z,18.24
2022-09-26T22:11:04.316Z,18.23
2022-09-26T22:13:34.918Z,18.22
2022-09-26T22:16:12.079Z,18.18
2022-09-26T22:18:40.127Z,18.16
2022-09-26T22:21:08.494Z,18.14
2022-09-26T22:23:35.982Z,18.10
2022-09-26T22:26:03.510Z,18.08
2022-09-26T22:28:30.199Z,18.05
2022-09-26T22:31:01.189Z,18.03
2022-09-26T22:33:27.897Z,18.01
2022-09-26T22:35:54.461Z,18.02
2022-09-26T22:38:20.967Z,17.99
2022-09-26T22:40:59.012Z,17.94
2022-09-26T22:43:26.420Z,17.90
2022-09-26T22:45:53.163Z,17.91
2022-09-26T22:48:19.827Z,17.90
2022-09-26T22:50:46.492Z,17.91
2022-09-26T22:53:13.003Z,17.90
2022-09-26T22:55:39.664Z,17.90
2022-09-26T22:58:06.169Z,17.87
2022-09-26T23:00:32.644Z,17.80
2022-09-26T23:02:59.176Z,17.76
2022-09-26T23:05:25.700Z,17.74
2022-09-26T23:07:55.203Z,17.73
2022-09-26T23:10:22.311Z,17.72
2022-09-26T23:12:50.626Z,17.70
2022-09-26T23:15:18.332Z,17.64
2022-09-26T23:17:44.869Z,17.59
2022-09-26T23:20:11.569Z,17.55
2022-09-26T23:22:39.739Z,17.52
2022-09-26T23:25:07.210Z,17.52
2022-09-26T23:27:33.853Z,17.53
2022-09-26T23:30:00.358Z,17.51
2022-09-26T23:32:26.991Z,17.50
2022-09-26T23:34:53.484Z,17.48
2022-09-26T23:37:20.009Z,17.45
2022-09-26T23:39:46.659Z,17.44
2022-09-26T23:42:13.472Z,17.44
2022-09-26T23:44:40.013Z,17.44
2022-09-26T23:47:06.528Z,17.46
2022-09-26T23:49:33.073Z,17.46
2022-09-26T23:51:59.718Z,17.41
2022-09-26T23:54:26.257Z,17.41
2022-09-26T23:56:52.781Z,17.42
2022-09-26T23:59:19.313Z,17.43
